createdAt,value
2022-10-01T00:02:09.424Z,4.63
2022-10-01T00:04:39.530Z,5.75
2022-10-01T00:07:10.877Z,6.38
2022-10-01T00:09:39.371Z,7.03
2022-10-01T00:12:08.231Z,3.88
2022-10-01T00:14:39.084Z,5.68
2022-10-01T00:17:07.571Z,4.30
2022-10-01T00:19:36.025Z,5.07
2022-10-01T00:22:04.400Z,7.18
2022-10-01T00:24:33.615Z,12.57
2022-10-01T00:27:02.213Z,5.32
2022-10-01T00:29:31.883Z,14.95
2022-10-01T00:32:00.708Z,5.45
2022-10-01T00:34:29.211Z,4.35
2022-10-01T00:36:57.676Z,4.50
2022-10-01T00:39:26.063Z,4.85
2022-10-01T00:41:54.593Z,12.63
2022-10-01T00:44:35.460Z,4.03
2022-10-01T00:47:19.433Z,6.85
2022-10-01T00:49:50.479Z,5.35
2022-10-01T00:52:24.693Z,5.18
2022-10-01T00:54:57.607Z,5.97
2022-10-01T00:57:27.279Z,6.38
2022-10-01T01:00:01.206Z,6.30
2022-10-01T01:02:29.583Z,4.38
2022-10-01T01:04:58.862Z,4.45
2022-10-01T01:07:29.264Z,4.15
2022-10-01T01:09:58.925Z,3.67
2022-10-01T01:12:53.940Z,4.63
2022-10-01T01:15:42.233Z,9.32
2022-10-01T01:18:30.513Z,9.77
2022-10-01T01:21:02.592Z,4.78
2022-10-01T01:26:05.363Z,5.57
2022-10-01T01:28:39.132Z,5.55
2022-10-01T01:31:13.690Z,4.75
2022-10-01T01:33:46.439Z,4.63
2022-10-01T01:36:19.145Z,6.10
2022-10-01T01:38:57.474Z,4.05
2022-10-01T01:41:32.484Z,6.57
2022-10-01T01:44:03.236Z,6.97
2022-10-01T01:46:34.853Z,5.85
2022-10-01T01:49:05.215Z,4.57
2022-10-01T01:51:44.394Z,9.13
2022-10-01T01:54:12.769Z,4.78
2022-10-01T01:56:41.446Z,6.40
2022-10-01T01:59:10.344Z,6.40
2022-10-01T02:01:41.633Z,4.95
2022-10-01T02:04:23.800Z,4.03
2022-10-01T02:07:10.839Z,3.55
2022-10-01T02:09:42.234Z,2.88
2022-10-01T02:12:37.645Z,3.58
2022-10-01T02:15:17.133Z,2.75
2022-10-01T02:18:01.848Z,3.35
2022-10-01T02:20:39.355Z,2.78
2022-10-01T02:23:11.246Z,2.58
2022-10-01T02:25:49.859Z,2.35
2022-10-01T02:28:23.731Z,2.72
2022-10-01T02:30:54.332Z,3.25
2022-10-01T02:33:34.315Z,2.60
2022-10-01T02:36:06.257Z,9.88
2022-10-01T02:38:39.813Z,4.68
2022-10-01T02:41:12.030Z,12.85
2022-10-01T02:43:51.365Z,1.90
2022-10-01T02:46:46.913Z,2.55
2022-10-01T02:49:15.715Z,1.27
2022-10-01T02:51:56.428Z,3.25
2022-10-01T02:54:28.109Z,2.08
2022-10-01T02:57:16.471Z,1.58
2022-10-01T02:59:44.923Z,4.60
2022-10-01T03:02:13.551Z,1.50
2022-10-01T03:04:42.035Z,1.27
2022-10-01T03:07:10.368Z,1.70
2022-10-01T03:09:38.704Z,1.02
2022-10-01T03:12:07.178Z,4.75
2022-10-01T03:14:35.492Z,1.20
2022-10-01T03:17:06.937Z,1.85
2022-10-01T03:19:35.389Z,1.50
2022-10-01T03:22:03.863Z,1.33
2022-10-01T03:24:32.315Z,1.40
2022-10-01T03:27:00.932Z,2.25
2022-10-01T03:29:29.400Z,1.80
2022-10-01T03:31:57.958Z,4.70
2022-10-01T03:34:26.616Z,15.50
2022-10-01T03:36:54.957Z,1.48
2022-10-01T03:39:23.373Z,1.48
2022-10-01T03:41:51.734Z,1.98
2022-10-01T03:44:20.069Z,1.17
2022-10-01T03:46:48.715Z,1.48
2022-10-01T03:49:17.046Z,1.58
2022-10-01T03:51:45.512Z,1.88
2022-10-01T03:54:14.008Z,1.35
2022-10-01T03:56:42.620Z,1.20
2022-10-01T03:59:11.231Z,0.75
2022-10-01T04:01:39.934Z,0.82
2022-10-01T04:04:08.492Z,1.77
2022-10-01T04:06:36.797Z,1.67
2022-10-01T04:09:05.305Z,1.00
2022-10-01T04:11:34.039Z,1.60
2022-10-01T04:14:02.612Z,1.08
2022-10-01T04:16:31.130Z,1.13
2022-10-01T04:18:59.517Z,0.80
2022-10-01T04:21:27.948Z,1.08
2022-10-01T04:23:56.296Z,0.80
2022-10-01T04:26:25.109Z,0.98
2022-10-01T04:28:53.483Z,1.38
2022-10-01T04:31:24.829Z,0.85
2022-10-01T04:33:55.180Z,0.90
2022-10-01T04:36:24.760Z,4.18
2022-10-01T04:38:59.287Z,1.30
2022-10-01T04:41:31.105Z,0.95
2022-10-01T04:44:00.536Z,1.00
2022-10-01T04:46:30.419Z,0.98
2022-10-01T04:48:59.081Z,0.73
2022-10-01T04:51:27.480Z,0.90
2022-10-01T04:53:56.840Z,1.42
2022-10-01T04:56:25.237Z,3.08
2022-10-01T04:58:53.607Z,0.90
2022-10-01T05:01:22.117Z,0.90
2022-10-01T05:03:50.523Z,0.82
2022-10-01T05:06:18.890Z,1.27
2022-10-01T05:08:48.710Z,2.83
2022-10-01T05:11:17.078Z,1.85
2022-10-01T05:13:45.465Z,1.35
2022-10-01T05:16:13.835Z,1.40
2022-10-01T05:18:42.729Z,2.65
2022-10-01T05:21:11.751Z,3.13
2022-10-01T05:23:40.151Z,1.35
2022-10-01T05:26:08.630Z,1.55
2022-10-01T05:28:37.132Z,1.95
2022-10-01T05:31:05.771Z,1.38
2022-10-01T05:33:34.237Z,1.05
2022-10-01T05:36:06.777Z,1.65
2022-10-01T05:38:37.189Z,1.70
2022-10-01T05:41:05.764Z,4.30
2022-10-01T05:43:36.029Z,1.67
2022-10-01T05:46:05.575Z,1.65
2022-10-01T05:48:37.640Z,2.10
2022-10-01T05:51:07.937Z,1.98
2022-10-01T05:53:40.245Z,5.30
2022-10-01T05:56:10.495Z,1.30
2022-10-01T05:58:38.819Z,1.83
2022-10-01T06:01:07.411Z,1.83
2022-10-01T06:03:36.108Z,2.22
2022-10-01T06:06:05.630Z,3.00
2022-10-01T06:08:36.964Z,2.10
2022-10-01T06:11:05.642Z,4.10
2022-10-01T06:13:35.840Z,1.88
2022-10-01T06:16:04.491Z,2.97
2022-10-01T06:18:33.019Z,4.40
2022-10-01T06:21:01.545Z,2.80
2022-10-01T06:23:29.933Z,8.45
2022-10-01T06:26:00.275Z,2.70
2022-10-01T06:28:28.902Z,1.85
2022-10-01T06:30:57.436Z,5.70
2022-10-01T06:33:25.894Z,2.83
2022-10-01T06:35:55.471Z,3.60
2022-10-01T06:38:25.365Z,6.60
2022-10-01T06:40:57.415Z,2.70
2022-10-01T06:45:55.602Z,3.53
2022-10-01T06:48:23.981Z,2.92
2022-10-01T06:50:53.134Z,10.57
2022-10-01T06:53:21.954Z,2.88
2022-10-01T06:55:50.472Z,3.70
2022-10-01T06:58:21.762Z,7.50
2022-10-01T07:00:51.200Z,5.57
2022-10-01T07:03:21.507Z,7.35
2022-10-01T07:05:50.336Z,3.25
2022-10-01T07:08:19.211Z,2.88
2022-10-01T07:10:47.600Z,3.53
2022-10-01T07:13:18.415Z,4.78
2022-10-01T07:15:47.247Z,6.75
2022-10-01T07:18:16.746Z,4.03
2022-10-01T07:20:45.064Z,2.90
2022-10-01T07:23:15.380Z,9.00
2022-10-01T07:25:44.604Z,4.60
2022-10-01T07:28:19.562Z,6.30
2022-10-01T07:31:03.707Z,8.43
2022-10-01T07:33:32.732Z,6.20
2022-10-01T07:36:03.015Z,11.07
2022-10-01T07:38:33.404Z,10.80
2022-10-01T07:41:03.356Z,7.38
2022-10-01T07:43:33.164Z,7.90
2022-10-01T07:46:01.954Z,6.35
2022-10-01T07:48:31.041Z,5.18
2022-10-01T07:50:59.416Z,4.80
2022-10-01T07:53:28.328Z,13.70
2022-10-01T07:56:00.902Z,6.95
2022-10-01T07:58:29.388Z,9.50
2022-10-01T08:01:00.540Z,14.15
2022-10-01T08:03:29.098Z,6.20
2022-10-01T08:05:57.563Z,6.25
2022-10-01T08:08:26.011Z,8.20
2022-10-01T08:10:54.961Z,7.10
2022-10-01T08:13:27.294Z,6.30
2022-10-01T08:15:55.752Z,6.70
2022-10-01T08:18:24.137Z,6.65
2022-10-01T08:20:52.634Z,8.02
2022-10-01T08:23:21.644Z,7.03
2022-10-01T08:25:50.119Z,6.60
2022-10-01T08:28:19.707Z,7.07
2022-10-01T08:30:48.339Z,8.63
2022-10-01T08:33:16.863Z,5.65
2022-10-01T08:35:46.239Z,7.00
2022-10-01T08:38:15.226Z,4.95
2022-10-01T08:40:49.882Z,6.10
2022-10-01T08:43:26.264Z,11.45
2022-10-01T08:45:59.838Z,6.75
2022-10-01T08:48:40.231Z,9.25
2022-10-01T08:51:32.761Z,10.73
2022-10-01T08:54:13.591Z,4.05
2022-10-01T08:56:46.244Z,3.35
2022-10-01T08:59:36.181Z,10.98
2022-10-01T09:02:25.319Z,3.72
2022-10-01T09:05:01.223Z,5.38
2022-10-01T09:07:51.643Z,5.53
2022-10-01T09:10:28.330Z,8.80
2022-10-01T09:13:50.564Z,9.85
2022-10-01T09:16:28.022Z,9.48
2022-10-01T09:19:15.114Z,6.55
2022-10-01T09:21:57.317Z,8.95
2022-10-01T09:27:27.394Z,13.10
2022-10-01T09:30:03.790Z,7.72
2022-10-01T09:32:39.580Z,6.68
2022-10-01T09:35:23.600Z,20.05
2022-10-01T09:37:59.466Z,15.20
2022-10-01T09:40:35.657Z,15.95
2022-10-01T09:43:08.130Z,18.42
2022-10-01T09:45:37.560Z,14.43
2022-10-01T09:48:25.092Z,7.05
2022-10-01T09:51:10.469Z,16.08
2022-10-01T09:54:01.089Z,20.30
2022-10-01T09:56:42.723Z,18.27
2022-10-01T09:59:19.472Z,18.63
2022-10-01T10:01:55.678Z,12.77
2022-10-01T10:04:24.600Z,7.90
2022-10-01T10:07:05.339Z,7.90
2022-10-01T10:09:35.689Z,9.25
2022-10-01T10:12:09.806Z,14.95
2022-10-01T10:14:44.768Z,23.40
2022-10-01T10:17:20.597Z,12.68
2022-10-01T10:19:52.284Z,21.17
2022-10-01T10:22:26.174Z,17.55
2022-10-01T10:24:58.860Z,16.02
2022-10-01T10:27:29.700Z,11.43
2022-10-01T10:30:02.823Z,13.63
2022-10-01T10:32:32.146Z,13.02
2022-10-01T10:35:05.508Z,13.63
2022-10-01T10:37:38.027Z,8.15
2022-10-01T10:40:08.362Z,14.32
2022-10-01T10:42:38.907Z,12.00
2022-10-01T10:45:17.876Z,26.30
2022-10-01T10:47:51.488Z,12.35
2022-10-01T10:50:42.552Z,17.00
2022-10-01T10:53:19.823Z,21.15
2022-10-01T10:56:01.975Z,16.42
2022-10-01T11:01:16.286Z,8.35
2022-10-01T11:03:48.836Z,17.63
2022-10-01T11:06:18.718Z,14.98
2022-10-01T11:08:57.283Z,14.27
2022-10-01T11:11:43.172Z,23.00
2022-10-01T11:14:23.891Z,13.13
2022-10-01T11:17:19.967Z,9.70
2022-10-01T11:19:48.396Z,28.25
2022-10-01T11:22:28.849Z,14.27
2022-10-01T11:25:16.297Z,13.25
2022-10-01T11:27:44.725Z,18.05
2022-10-01T11:30:21.232Z,8.20
2022-10-01T11:33:17.191Z,22.25
2022-10-01T11:36:19.196Z,24.00
2022-10-01T11:39:10.306Z,9.90
2022-10-01T11:41:52.874Z,11.15
2022-10-01T11:44:37.221Z,15.85
2022-10-01T11:47:36.781Z,12.98
2022-10-01T11:50:14.907Z,17.70
2022-10-01T11:52:53.705Z,8.63
2022-10-01T11:55:46.314Z,16.30
2022-10-01T11:58:37.289Z,12.30
2022-10-01T12:01:11.920Z,13.18
2022-10-01T12:04:12.152Z,30.95
2022-10-01T12:07:02.998Z,32.50
2022-10-01T12:09:50.259Z,11.38
2022-10-01T12:12:23.092Z,7.82
2022-10-01T12:15:08.802Z,22.60
2022-10-01T12:17:47.245Z,27.02
2022-10-01T12:20:31.695Z,12.02
2022-10-01T12:23:05.190Z,14.65
2022-10-01T12:25:46.913Z,8.73
2022-10-01T12:28:28.235Z,16.50
2022-10-01T12:31:12.474Z,23.92
2022-10-01T12:33:47.261Z,12.25
2022-10-01T12:36:36.559Z,23.40
2022-10-01T12:39:39.198Z,10.60
2022-10-01T12:42:31.557Z,15.98
2022-10-01T12:47:50.825Z,13.57
2022-10-01T12:50:26.425Z,6.22
2022-10-01T12:53:06.215Z,10.35
2022-10-01T12:56:00.899Z,15.48
2022-10-01T12:59:06.636Z,5.07
2022-10-01T13:02:02.258Z,16.25
2022-10-01T13:04:56.892Z,10.68
2022-10-01T13:07:28.404Z,17.85
2022-10-01T13:09:57.914Z,12.23
2022-10-01T13:12:49.414Z,11.00
2022-10-01T13:15:22.876Z,8.57
2022-10-01T13:18:35.933Z,14.95
2022-10-01T13:21:29.266Z,23.83
2022-10-01T13:24:23.952Z,14.43
2022-10-01T13:27:07.351Z,17.02
2022-10-01T13:29:45.086Z,8.40
2022-10-01T13:32:27.591Z,18.95
2022-10-01T13:34:57.371Z,12.68
2022-10-01T13:37:38.472Z,9.57
2022-10-01T13:40:32.499Z,5.32
2022-10-01T13:43:18.464Z,14.82
2022-10-01T13:45:50.578Z,10.50
2022-10-01T13:48:23.417Z,4.57
2022-10-01T13:51:05.488Z,16.77
2022-10-01T13:53:58.501Z,12.10
2022-10-01T13:56:35.058Z,9.20
2022-10-01T13:59:21.314Z,12.23
2022-10-01T14:01:50.870Z,8.25
2022-10-01T14:04:19.224Z,14.00
2022-10-01T14:06:47.680Z,8.77
2022-10-01T14:09:19.114Z,16.33
2022-10-01T14:12:10.518Z,8.75
2022-10-01T14:15:21.214Z,15.37
2022-10-01T14:17:55.701Z,13.07
2022-10-01T14:20:30.133Z,8.82
2022-10-01T14:23:10.978Z,4.13
2022-10-01T14:25:54.013Z,6.15
2022-10-01T14:28:37.810Z,16.55
2022-10-01T14:31:19.625Z,5.95
2022-10-01T14:33:51.000Z,19.80
2022-10-01T14:36:45.019Z,14.60
2022-10-01T14:39:26.752Z,6.85
2022-10-01T14:41:57.551Z,22.05
2022-10-01T14:44:41.714Z,6.65
2022-10-01T14:47:27.874Z,18.13
2022-10-01T14:49:56.255Z,7.57
2022-10-01T14:52:28.827Z,23.20
2022-10-01T14:55:01.686Z,8.32
2022-10-01T14:57:34.657Z,14.85
2022-10-01T15:00:13.525Z,10.60
2022-10-01T15:02:49.320Z,13.68
2022-10-01T15:05:28.814Z,13.05
2022-10-01T15:07:57.412Z,9.50
2022-10-01T15:10:27.855Z,13.60
2022-10-01T15:12:56.434Z,9.75
2022-10-01T15:15:32.594Z,7.97
2022-10-01T15:18:04.338Z,21.50
2022-10-01T15:20:32.770Z,12.02
2022-10-01T15:23:04.943Z,10.30
2022-10-01T15:25:33.393Z,21.35
2022-10-01T15:28:01.799Z,6.85
2022-10-01T15:30:32.643Z,23.67
2022-10-01T15:33:02.098Z,22.50
2022-10-01T15:35:32.441Z,13.93
2022-10-01T15:38:00.965Z,8.88
2022-10-01T15:40:35.314Z,9.55
2022-10-01T15:43:06.779Z,13.77
2022-10-01T15:45:35.700Z,6.50
2022-10-01T15:48:04.147Z,5.93
2022-10-01T15:50:36.817Z,12.13
2022-10-01T15:53:22.012Z,11.38
2022-10-01T15:55:52.732Z,11.52
2022-10-01T15:58:36.696Z,12.70
2022-10-01T16:01:09.605Z,12.90
2022-10-01T16:03:49.554Z,11.57
2022-10-01T16:06:23.672Z,9.63
2022-10-01T16:09:10.461Z,10.57
2022-10-01T16:11:56.519Z,6.90
2022-10-01T16:14:32.094Z,7.57
2022-10-01T16:17:19.075Z,6.97
2022-10-01T16:19:49.824Z,16.98
2022-10-01T16:22:31.851Z,8.13
2022-10-01T16:25:07.075Z,8.20
2022-10-01T16:27:58.421Z,9.50
2022-10-01T16:30:28.294Z,11.20
2022-10-01T16:32:59.206Z,10.85
2022-10-01T16:35:35.934Z,7.60
2022-10-01T16:38:09.083Z,18.17
2022-10-01T16:40:40.867Z,14.38
2022-10-01T16:43:19.867Z,7.00
2022-10-01T16:45:48.277Z,9.73
2022-10-01T16:48:22.280Z,7.20
2022-10-01T16:50:53.642Z,17.00
2022-10-01T16:53:24.698Z,22.98
2022-10-01T16:55:53.206Z,15.80
2022-10-01T16:58:21.856Z,13.95
2022-10-01T17:00:51.496Z,18.42
2022-10-01T17:03:22.373Z,12.00
2022-10-01T17:05:50.772Z,21.73
2022-10-01T17:08:19.141Z,15.38
2022-10-01T17:10:53.168Z,21.92
2022-10-01T17:13:21.669Z,19.80
2022-10-01T17:15:51.690Z,11.55
2022-10-01T17:18:20.760Z,14.63
2022-10-01T17:20:49.158Z,12.27
2022-10-01T17:23:19.890Z,28.85
2022-10-01T17:25:48.470Z,19.55
2022-10-01T17:28:19.940Z,12.80
2022-10-01T17:30:49.557Z,8.75
2022-10-01T17:33:19.573Z,11.18
2022-10-01T17:35:51.813Z,13.35
2022-10-01T17:38:21.251Z,29.95
2022-10-01T17:40:55.482Z,29.25
2022-10-01T17:43:25.199Z,10.88
2022-10-01T17:46:00.783Z,7.40
2022-10-01T17:48:30.016Z,12.20
2022-10-01T17:51:09.689Z,8.27
2022-10-01T17:53:42.432Z,7.53
2022-10-01T17:56:16.675Z,9.30
2022-10-01T17:58:46.300Z,21.90
2022-10-01T18:01:19.820Z,20.02
2022-10-01T18:03:55.690Z,16.60
2022-10-01T18:06:26.394Z,17.63
2022-10-01T18:08:56.300Z,18.15
2022-10-01T18:11:27.285Z,8.85
2022-10-01T18:13:55.864Z,34.58
2022-10-01T18:16:24.632Z,19.33
2022-10-01T18:21:50.899Z,13.20
2022-10-01T18:24:19.324Z,11.68
2022-10-01T18:26:47.979Z,10.73
2022-10-01T18:29:22.592Z,5.70
2022-10-01T18:31:54.079Z,10.32
2022-10-01T18:34:29.676Z,14.00
2022-10-01T18:36:58.033Z,18.85
2022-10-01T18:40:10.656Z,12.20
2022-10-01T18:42:57.801Z,7.90
2022-10-01T18:45:54.829Z,14.68
2022-10-01T18:48:47.531Z,21.77
2022-10-01T18:51:35.265Z,25.63
2022-10-01T18:54:14.656Z,10.52
2022-10-01T18:57:33.761Z,16.98
2022-10-01T19:00:23.405Z,14.90
2022-10-01T19:03:03.377Z,12.07
2022-10-01T19:05:56.938Z,14.98
2022-10-01T19:09:03.272Z,23.20
2022-10-01T19:12:09.142Z,22.60
2022-10-01T19:15:13.675Z,11.25
2022-10-01T19:17:50.917Z,10.40
2022-10-01T19:20:46.208Z,12.13
2022-10-01T19:23:17.437Z,17.13
2022-10-01T19:25:50.586Z,33.47
2022-10-01T19:28:37.750Z,14.30
2022-10-01T19:31:19.709Z,20.73
2022-10-01T19:33:57.754Z,11.07
2022-10-01T19:36:34.265Z,18.02
2022-10-01T19:39:09.689Z,10.23
2022-10-01T19:41:44.411Z,15.27
2022-10-01T19:44:31.856Z,22.98
2022-10-01T19:47:22.253Z,16.35
2022-10-01T19:49:52.511Z,12.35
2022-10-01T19:52:24.234Z,18.52
2022-10-01T19:54:55.697Z,14.38
2022-10-01T19:57:28.003Z,22.08
2022-10-01T19:59:59.439Z,28.90
2022-10-01T20:02:36.377Z,20.70
2022-10-01T20:05:09.430Z,19.40
2022-10-01T20:07:47.608Z,12.07
2022-10-01T20:10:41.545Z,24.42
2022-10-01T20:13:33.361Z,13.70
2022-10-01T20:16:18.002Z,13.98
2022-10-01T20:19:04.983Z,20.27
2022-10-01T20:21:49.370Z,15.57
2022-10-01T20:24:51.621Z,18.13
2022-10-01T20:27:47.103Z,11.55
2022-10-01T20:30:20.282Z,12.88
2022-10-01T20:33:01.492Z,15.35
2022-10-01T20:35:55.598Z,21.45
2022-10-01T20:38:39.650Z,17.90
2022-10-01T20:41:21.157Z,18.38
2022-10-01T20:44:00.238Z,16.15
2022-10-01T20:46:44.344Z,17.92
2022-10-01T20:49:15.852Z,19.80
2022-10-01T20:51:55.608Z,13.38
2022-10-01T20:54:35.298Z,14.57
2022-10-01T20:57:24.426Z,16.00
2022-10-01T20:59:56.335Z,13.00
2022-10-01T21:02:24.758Z,20.70
2022-10-01T21:05:07.570Z,14.63
2022-10-01T21:07:51.183Z,9.52
2022-10-01T21:10:42.546Z,14.40
2022-10-01T21:13:19.762Z,26.77
2022-10-01T21:16:16.092Z,15.50
2022-10-01T21:19:17.212Z,16.42
2022-10-01T21:22:13.588Z,19.40
2022-10-01T21:25:12.649Z,12.63
2022-10-01T21:28:00.182Z,28.02
2022-10-01T21:30:45.822Z,20.83
2022-10-01T21:33:19.676Z,18.20
2022-10-01T21:36:02.269Z,16.15
2022-10-01T21:38:49.671Z,11.55
2022-10-01T21:41:40.018Z,21.92
2022-10-01T21:44:42.557Z,27.15
2022-10-01T21:50:05.369Z,18.38
2022-10-01T21:53:02.709Z,18.77
2022-10-01T21:55:41.363Z,30.88
2022-10-01T21:58:30.614Z,23.42
2022-10-01T22:01:17.616Z,10.95
2022-10-01T22:04:02.655Z,22.35
2022-10-01T22:06:44.937Z,20.67
2022-10-01T22:11:52.760Z,44.50
2022-10-01T22:14:22.459Z,12.93
2022-10-01T22:16:57.373Z,17.10
2022-10-01T22:19:29.443Z,21.73
2022-10-01T22:24:46.533Z,33.30
2022-10-01T22:27:24.989Z,28.23
2022-10-01T22:29:58.413Z,33.55
2022-10-01T22:32:33.130Z,20.38
2022-10-01T22:35:14.365Z,25.92
2022-10-01T22:38:18.713Z,20.80
2022-10-01T22:40:55.245Z,22.13
2022-10-01T22:43:23.600Z,38.13
2022-10-01T22:46:07.831Z,24.13
2022-10-01T22:48:58.204Z,31.42
2022-10-01T22:51:37.206Z,28.27
2022-10-01T22:54:17.999Z,15.90
2022-10-01T22:56:54.306Z,24.88
2022-10-01T22:59:46.886Z,37.28
2022-10-01T23:02:51.195Z,10.00
2022-10-01T23:05:35.122Z,35.67
2022-10-01T23:08:09.607Z,19.88
2022-10-01T23:10:59.464Z,27.17
2022-10-01T23:14:02.318Z,31.77
2022-10-01T23:16:51.813Z,28.48
2022-10-01T23:19:54.878Z,21.85
2022-10-01T23:22:41.549Z,10.38
2022-10-01T23:25:38.882Z,18.95
2022-10-01T23:28:41.599Z,21.52
2022-10-01T23:31:12.897Z,38.25
2022-10-01T23:34:18.867Z,30.38
2022-10-01T23:36:53.216Z,26.50
2022-10-01T23:39:41.105Z,34.80
2022-10-01T23:42:15.738Z,20.58
2022-10-01T23:44:52.324Z,24.65
2022-10-01T23:47:35.982Z,42.00
2022-10-01T23:50:07.747Z,21.45
2022-10-01T23:52:47.493Z,15.18
2022-10-01T23:55:59.876Z,20.17
2022-10-01T23:58:35.304Z,26.83
